createdAt,value
2022-12-04T00:01:27.993Z,-11130.13
2022-12-04T00:04:34.431Z,-11130.41
2022-12-04T00:07:40.978Z,-11123.41
2022-12-04T00:10:47.149Z,-11120.72
2022-12-04T00:13:55.052Z,-11121.72
2022-12-04T00:17:01.190Z,-11126.91
2022-12-04T00:20:09.089Z,-11117.50
2022-12-04T00:23:15.567Z,-11123.53
2022-12-04T00:26:24.352Z,-11121.44
2022-12-04T00:29:32.051Z,-11121.44
2022-12-04T00:32:38.222Z,-11116.38
2022-12-04T00:35:44.653Z,-11118.06
2022-12-04T00:38:51.376Z,-11114.41
2022-12-04T00:41:57.306Z,-11121.72
2022-12-04T00:45:04.858Z,-11124.81
2022-12-04T00:48:11.132Z,-11122.13
2022-12-04T00:51:19.645Z,-11112.03
2022-12-04T00:54:25.711Z,-11123.97
2022-12-04T00:57:31.944Z,-11115.81
2022-12-04T01:00:40.680Z,-11118.06
2022-12-04T01:03:47.534Z,-11113.84
2022-12-04T01:06:53.718Z,-11123.97
2022-12-04T01:09:59.984Z,-11117.78
2022-12-04T01:13:06.157Z,-11116.09
2022-12-04T01:16:19.690Z,-11112.31
2022-12-04T01:19:25.971Z,-11120.59
2022-12-04T01:22:32.318Z,-11123.69
2022-12-04T01:25:38.209Z,-11126.78
2022-12-04T01:28:44.525Z,-11124.09
2022-12-04T01:31:52.231Z,-11122.84
2022-12-04T01:34:58.680Z,-11122.56
2022-12-04T01:38:04.852Z,-11127.47
2022-12-04T01:41:12.656Z,-11128.47
2022-12-04T01:44:20.544Z,-11127.63
2022-12-04T01:47:28.228Z,-11125.94
2022-12-04T01:50:34.645Z,-11124.25
2022-12-04T01:53:44.823Z,-11119.75
2022-12-04T01:56:56.212Z,-11121.72
2022-12-04T02:00:06.992Z,-11114.97
2022-12-04T02:03:16.160Z,-11121.72
2022-12-04T02:06:22.538Z,-11118.63
2022-12-04T02:09:29.499Z,-11125.94
2022-12-04T02:12:45.271Z,-11122.84
2022-12-04T02:15:57.551Z,-11122.41
2022-12-04T02:19:18.813Z,-11119.03
2022-12-04T02:22:32.602Z,-11116.94
2022-12-04T02:25:47.539Z,-11112.44
2022-12-04T02:29:21.507Z,-11121.44
2022-12-04T02:32:35.252Z,-11127.06
2022-12-04T02:35:45.876Z,-11119.75
2022-12-04T02:38:56.588Z,-11115.13
2022-12-04T02:42:10.244Z,-11114.13
2022-12-04T02:45:22.433Z,-11112.72
2022-12-04T02:48:32.126Z,-11112.44
2022-12-04T02:51:40.798Z,-11110.91
2022-12-04T02:54:52.167Z,-11116.81
2022-12-04T02:58:03.273Z,-11117.50
2022-12-04T03:01:20.578Z,-11123.13
2022-12-04T03:04:30.727Z,-11114.97
2022-12-04T03:07:44.907Z,-11111.88
2022-12-04T03:10:55.956Z,-11108.66
2022-12-04T03:14:07.521Z,-11114.97
2022-12-04T03:17:19.822Z,-11118.91
2022-12-04T03:20:27.136Z,-11122.84
2022-12-04T03:23:39.190Z,-11112.16
2022-12-04T03:26:48.888Z,-11112.44
2022-12-04T03:30:00.153Z,-11117.66
2022-12-04T03:33:13.484Z,-11123.13
2022-12-04T03:36:23.995Z,-11114.69
2022-12-04T03:39:36.199Z,-11118.75
2022-12-04T03:42:50.114Z,-11120.59
2022-12-04T03:46:01.077Z,-11123.25
2022-12-04T03:49:14.292Z,-11120.31
2022-12-04T03:52:25.488Z,-11117.22
2022-12-04T03:55:37.413Z,-11120.31
2022-12-04T03:58:49.568Z,-11121.44
2022-12-04T04:01:59.363Z,-11120.59
2022-12-04T04:05:12.531Z,-11119.31
2022-12-04T04:08:29.663Z,-11122.41
2022-12-04T04:11:41.753Z,-11121.00
2022-12-04T04:15:10.117Z,-11122.28
2022-12-04T04:18:29.871Z,-11125.09
2022-12-04T04:21:57.109Z,-11123.69
2022-12-04T04:25:07.015Z,-11120.88
2022-12-04T04:28:33.133Z,-11120.03
2022-12-04T04:31:44.232Z,-11120.88
2022-12-04T04:35:02.064Z,-11123.41
2022-12-04T04:38:17.089Z,-11123.13
2022-12-04T04:41:31.711Z,-11122.84
2022-12-04T04:44:46.980Z,-11123.53
2022-12-04T04:47:56.873Z,-11123.13
2022-12-04T04:51:05.634Z,-11122.00
2022-12-04T04:54:16.004Z,-11121.16
2022-12-04T04:57:29.855Z,-11122.41
2022-12-04T05:00:36.813Z,-11119.75
2022-12-04T05:03:43.871Z,-11121.16
2022-12-04T05:06:50.226Z,-11121.72
2022-12-04T05:09:58.066Z,-11120.88
2022-12-04T05:13:04.305Z,-11119.19
2022-12-04T05:16:13.465Z,-11114.00
2022-12-04T05:19:36.992Z,-11118.06
2022-12-04T05:22:42.981Z,-11116.09
2022-12-04T05:25:50.762Z,-11120.16
2022-12-04T05:28:56.953Z,-11122.28
2022-12-04T05:32:03.226Z,-11120.16
2022-12-04T05:35:11.513Z,-11115.97
2022-12-04T05:38:18.028Z,-11120.59
2022-12-04T05:41:25.885Z,-11119.59
2022-12-04T05:44:31.937Z,-11121.72
2022-12-04T05:47:40.359Z,-11118.91
2022-12-04T05:50:46.330Z,-11117.09
2022-12-04T05:53:53.900Z,-11117.94
2022-12-04T05:57:01.491Z,-11121.44
2022-12-04T06:00:09.173Z,-11111.31
2022-12-04T06:03:15.067Z,-11111.59
2022-12-04T06:06:23.232Z,-11119.31
2022-12-04T06:09:29.289Z,-11122.00
2022-12-04T06:12:37.055Z,-11123.13
2022-12-04T06:15:43.294Z,-11128.75
2022-12-04T06:18:51.931Z,-11122.56
2022-12-04T06:21:58.168Z,-11123.13
2022-12-04T06:25:04.630Z,-11129.31
2022-12-04T06:28:12.435Z,-11123.41
2022-12-04T06:31:20.187Z,-11119.19
2022-12-04T06:34:26.364Z,-11127.63
2022-12-04T06:37:32.731Z,-11133.22
2022-12-04T06:40:41.138Z,-11136.03
2022-12-04T06:43:50.819Z,-11137.59
2022-12-04T06:47:00.742Z,-11140.25
2022-12-04T06:50:08.484Z,-11139.84
2022-12-04T06:53:14.377Z,-11145.03
2022-12-04T06:56:23.768Z,-11145.31
2022-12-04T06:59:31.018Z,-11147.00
2022-12-04T07:02:37.810Z,-11148.97
2022-12-04T07:05:44.125Z,-11147.56
2022-12-04T07:08:53.391Z,-11172.44
2022-12-04T07:11:59.252Z,-11164.16
2022-12-04T07:15:07.721Z,-11160.78
2022-12-04T07:18:13.504Z,-11152.75
2022-12-04T07:21:21.809Z,-11154.03
2022-12-04T07:24:27.842Z,-11159.94
2022-12-04T07:27:33.855Z,-11165.69
2022-12-04T07:30:41.670Z,-11171.31
2022-12-04T07:33:48.814Z,-11162.19
2022-12-04T07:36:55.174Z,-11170.91
2022-12-04T07:40:01.412Z,-11173.16
2022-12-04T07:43:07.694Z,-11169.50
2022-12-04T07:46:17.966Z,-11178.19
2022-12-04T07:49:24.033Z,-11180.72
2022-12-04T07:52:31.225Z,-11156.41
2022-12-04T07:55:37.166Z,-11172.88
2022-12-04T07:59:02.534Z,-11173.72
2022-12-04T08:02:10.297Z,-11177.91
2022-12-04T08:05:16.746Z,-11183.53
2022-12-04T08:08:23.711Z,-11170.75
2022-12-04T08:11:30.425Z,-11185.50
2022-12-04T08:14:37.068Z,-11178.19
2022-12-04T08:17:44.650Z,-11187.75
2022-12-04T08:20:50.869Z,-11180.59
2022-12-04T08:23:58.755Z,-11182.13
2022-12-04T08:27:05.060Z,-11192.25
2022-12-04T08:30:12.140Z,-11185.50
2022-12-04T08:33:19.793Z,-11190.84
2022-12-04T08:36:26.605Z,-11209.13
2022-12-04T08:39:32.802Z,-11207.16
2022-12-04T08:42:38.848Z,-11208.28
2022-12-04T08:45:45.107Z,-11189.16
2022-12-04T08:48:53.022Z,-11202.38
2022-12-04T08:51:58.965Z,-11203.50
2022-12-04T08:55:05.313Z,-11208.28
2022-12-04T08:58:12.013Z,-11219.81
2022-12-04T09:01:20.655Z,-11231.06
2022-12-04T09:04:28.524Z,-11236.72
2022-12-04T09:07:35.077Z,-11251.63
2022-12-04T09:10:42.225Z,-11250.22
2022-12-04T09:13:48.888Z,-11243.75
2022-12-04T09:16:55.425Z,-11242.59
2022-12-04T09:20:03.873Z,-11224.31
2022-12-04T09:23:10.194Z,-11223.47
2022-12-04T09:26:24.997Z,-11251.91
2022-12-04T09:29:31.334Z,-11250.78
2022-12-04T09:32:37.910Z,-11236.00
2022-12-04T09:35:45.469Z,-11244.16
2022-12-04T09:38:54.270Z,-11254.00
2022-12-04T09:42:11.903Z,-11247.81
2022-12-04T09:45:22.021Z,-11233.75
2022-12-04T09:48:34.568Z,-11245.28
2022-12-04T09:51:43.551Z,-11255.13
2022-12-04T09:54:51.968Z,-11247.81
2022-12-04T09:58:02.586Z,-11254.72
2022-12-04T10:01:22.147Z,-11258.78
2022-12-04T10:04:28.666Z,-11259.91
2022-12-04T10:07:45.054Z,-11254.72
2022-12-04T10:11:01.261Z,-11254.16
2022-12-04T10:14:34.013Z,-11268.09
2022-12-04T10:17:52.467Z,-11281.16
2022-12-04T10:21:15.770Z,-11274.41
2022-12-04T10:24:36.172Z,-11271.59
2022-12-04T10:27:49.135Z,-11268.09
2022-12-04T10:30:58.634Z,-11270.63
2022-12-04T10:34:09.130Z,-11282.00
2022-12-04T10:37:17.042Z,-11278.06
2022-12-04T10:40:32.701Z,-11297.22
2022-12-04T10:43:44.549Z,-11298.19
2022-12-04T10:46:52.119Z,-11292.16
2022-12-04T10:50:02.329Z,-11282.28
2022-12-04T10:53:13.636Z,-11263.16
2022-12-04T10:56:24.049Z,-11236.16
2022-12-04T10:59:31.072Z,-11264.56
2022-12-04T11:02:40.562Z,-11249.78
2022-12-04T11:05:55.495Z,-11249.78
2022-12-04T11:09:03.767Z,-11249.78
2022-12-04T11:12:19.626Z,-11244.44
2022-12-04T11:15:26.585Z,-11253.88
2022-12-04T11:18:35.502Z,-11249.09
2022-12-04T11:21:41.637Z,-11239.78
2022-12-04T11:24:54.624Z,-11230.78
2022-12-04T11:28:04.636Z,-11226.28
2022-12-04T11:31:17.849Z,-11235.16
2022-12-04T11:34:30.109Z,-11238.09
2022-12-04T11:37:39.301Z,-11234.88
2022-12-04T11:40:52.292Z,-11234.03
2022-12-04T11:44:00.980Z,-11239.78
2022-12-04T11:47:17.463Z,-11235.59
2022-12-04T11:50:32.671Z,-11233.88
2022-12-04T11:53:48.728Z,-11248.25
2022-12-04T11:57:05.256Z,-11219.69
2022-12-04T12:00:17.633Z,-11226.84
2022-12-04T12:03:28.726Z,-11236.72
2022-12-04T12:06:38.046Z,-11231.63
2022-12-04T12:09:52.182Z,-11230.50
2022-12-04T12:13:07.064Z,-11236.72
2022-12-04T12:16:23.014Z,-11239.09
2022-12-04T12:19:47.767Z,-11233.03
2022-12-04T12:23:03.422Z,-11232.75
2022-12-04T12:26:13.240Z,-11226.28
2022-12-04T12:29:35.244Z,-11217.28
2022-12-04T12:32:56.700Z,-11215.88
2022-12-04T12:36:08.075Z,-11220.53
2022-12-04T12:39:19.377Z,-11221.78
2022-12-04T12:42:29.958Z,-11221.50
2022-12-04T12:45:45.934Z,-11220.09
2022-12-04T12:49:02.359Z,-11225.72
2022-12-04T12:52:17.608Z,-11220.53
2022-12-04T12:55:25.954Z,-11217.00
2022-12-04T12:58:38.980Z,-11222.34
2022-12-04T13:01:51.448Z,-11213.06
2022-12-04T13:05:05.539Z,-11212.22
2022-12-04T13:08:22.819Z,-11204.63
2022-12-04T13:11:30.731Z,-11221.22
2022-12-04T13:14:37.137Z,-11211.81
2022-12-04T13:17:45.337Z,-11214.47
2022-12-04T13:20:57.778Z,-11207.16
2022-12-04T13:24:44.171Z,-11211.66
2022-12-04T13:28:03.097Z,-11212.22
2022-12-04T13:31:21.503Z,-11205.47
2022-12-04T13:34:51.660Z,-11211.66
2022-12-04T13:38:18.311Z,-11211.66
2022-12-04T13:41:26.344Z,-11213.78
2022-12-04T13:44:34.320Z,-11211.09
2022-12-04T13:47:40.936Z,-11215.47
2022-12-04T13:50:47.427Z,-11202.94
2022-12-04T13:54:20.451Z,-11196.47
2022-12-04T13:57:28.385Z,-11208.28
2022-12-04T14:00:36.638Z,-11203.50
2022-12-04T14:03:49.535Z,-11197.03
2022-12-04T14:06:58.852Z,-11201.53
2022-12-04T14:10:10.232Z,-11206.59
2022-12-04T14:13:23.283Z,-11203.09
2022-12-04T14:16:35.480Z,-11201.13
2022-12-04T14:19:46.711Z,-11196.47
2022-12-04T14:22:53.049Z,-11188.88
2022-12-04T14:26:01.442Z,-11195.34
2022-12-04T14:29:16.852Z,-11189.72
2022-12-04T14:32:26.750Z,-11191.41
2022-12-04T14:35:34.419Z,-11186.34
2022-12-04T14:38:41.078Z,-11184.94
2022-12-04T14:41:49.120Z,-11183.81
2022-12-04T14:44:57.561Z,-11181.84
2022-12-04T14:48:18.957Z,-11181.72
2022-12-04T14:51:34.038Z,-11175.81
2022-12-04T14:54:49.648Z,-11179.03
2022-12-04T14:58:24.067Z,-11176.94
2022-12-04T15:01:37.728Z,-11177.06
2022-12-04T15:04:47.190Z,-11178.75
2022-12-04T15:07:56.130Z,-11175.66
2022-12-04T15:11:20.215Z,-11169.06
2022-12-04T15:14:27.890Z,-11171.59
2022-12-04T15:17:34.421Z,-11175.94
2022-12-04T15:20:46.323Z,-11174.13
2022-12-04T15:23:52.909Z,-11173.28
2022-12-04T15:26:59.443Z,-11171.75
2022-12-04T15:30:08.618Z,-11173.44
2022-12-04T15:33:21.831Z,-11173.00
2022-12-04T15:36:38.564Z,-11169.50
2022-12-04T15:39:45.191Z,-11168.66
2022-12-04T15:42:52.188Z,-11170.47
2022-12-04T15:46:00.564Z,-11168.50
2022-12-04T15:49:09.093Z,-11162.19
2022-12-04T15:52:17.148Z,-11168.66
2022-12-04T15:55:25.528Z,-11167.38
2022-12-04T15:58:33.268Z,-11172.59
2022-12-04T16:01:42.029Z,-11172.03
2022-12-04T16:04:48.093Z,-11168.66
2022-12-04T16:07:56.483Z,-11172.72
2022-12-04T16:11:05.062Z,-11165.00
2022-12-04T16:14:18.868Z,-11166.81
2022-12-04T16:17:31.439Z,-11168.78
2022-12-04T16:20:39.630Z,-11167.09
2022-12-04T16:23:46.336Z,-11168.37
2022-12-04T16:26:54.935Z,-11170.91
2022-12-04T16:30:00.881Z,-11167.66
2022-12-04T16:33:10.053Z,-11169.91
2022-12-04T16:36:15.936Z,-11165.84
2022-12-04T16:39:21.881Z,-11166.13
2022-12-04T16:42:29.747Z,-11167.81
2022-12-04T16:45:36.665Z,-11161.63
2022-12-04T16:48:44.644Z,-11164.16
2022-12-04T16:51:50.902Z,-11163.03
2022-12-04T16:55:00.510Z,-11167.25
2022-12-04T16:58:09.365Z,-11165.84
2022-12-04T17:01:21.882Z,-11167.66
2022-12-04T17:04:29.444Z,-11167.38
2022-12-04T17:07:35.517Z,-11162.88
2022-12-04T17:10:42.090Z,-11164.44
2022-12-04T17:13:48.072Z,-11163.72
2022-12-04T17:16:55.170Z,-11165.69
2022-12-04T17:20:02.586Z,-11163.88
2022-12-04T17:23:09.179Z,-11157.69
2022-12-04T17:26:16.591Z,-11159.94
2022-12-04T17:29:22.817Z,-11167.66
2022-12-04T17:32:31.366Z,-11163.03
2022-12-04T17:35:42.655Z,-11166.41
2022-12-04T17:38:49.352Z,-11161.34
2022-12-04T17:41:55.444Z,-11164.44
2022-12-04T17:45:01.388Z,-11161.06
2022-12-04T17:48:07.886Z,-11157.13
2022-12-04T17:51:18.278Z,-11159.66
2022-12-04T17:54:24.384Z,-11160.50
2022-12-04T17:57:30.645Z,-11156.97
2022-12-04T18:00:36.856Z,-11159.09
2022-12-04T18:03:44.506Z,-11156.56
2022-12-04T18:06:52.790Z,-11157.41
2022-12-04T18:09:59.550Z,-11157.41
2022-12-04T18:13:06.391Z,-11156.13
2022-12-04T18:16:12.920Z,-11153.03
2022-12-04T18:19:19.185Z,-11156.41
2022-12-04T18:22:27.009Z,-11156.00
2022-12-04T18:25:33.488Z,-11151.91
2022-12-04T18:28:40.049Z,-11155.16
2022-12-04T18:32:01.187Z,-11154.03
2022-12-04T18:35:08.672Z,-11152.34
2022-12-04T18:38:16.437Z,-11152.34
2022-12-04T18:41:23.223Z,-11152.34
2022-12-04T18:44:29.758Z,-11148.81
2022-12-04T18:47:36.621Z,-11151.91
2022-12-04T18:50:43.591Z,-11155.56
2022-12-04T18:53:52.485Z,-11154.88
2022-12-04T18:56:59.034Z,-11155.84
2022-12-04T19:00:06.647Z,-11147.56
2022-12-04T19:03:13.218Z,-11151.34
2022-12-04T19:06:19.669Z,-11153.47
2022-12-04T19:10:09.573Z,-11149.81
2022-12-04T19:12:56.644Z,-11150.50
2022-12-04T19:16:02.973Z,-11151.78
2022-12-04T19:19:09.488Z,-11151.91
2022-12-04T19:22:15.982Z,-11150.94
2022-12-04T19:25:23.661Z,-11150.50
2022-12-04T19:28:30.926Z,-11150.38
2022-12-04T19:31:38.547Z,-11151.78
2022-12-04T19:34:45.208Z,-11149.94
2022-12-04T19:37:53.238Z,-11148.13
2022-12-04T19:41:10.590Z,-11149.25
2022-12-04T19:44:47.325Z,-11149.25
2022-12-04T19:47:43.249Z,-11145.88
2022-12-04T19:50:49.997Z,-11148.97
2022-12-04T19:53:56.754Z,-11149.81
2022-12-04T19:57:04.243Z,-11146.84
2022-12-04T20:00:11.477Z,-11147.28
2022-12-04T20:03:17.787Z,-11153.47
2022-12-04T20:06:27.688Z,-11151.63
2022-12-04T20:09:33.780Z,-11143.34
2022-12-04T20:12:41.452Z,-11148.97
2022-12-04T20:15:47.524Z,-11144.75
2022-12-04T20:18:54.293Z,-11147.28
2022-12-04T20:22:00.304Z,-11147.41
2022-12-04T20:25:06.970Z,-11143.62
2022-12-04T20:28:14.770Z,-11128.59
2022-12-04T20:31:23.386Z,-11125.66
2022-12-04T20:34:29.982Z,-11126.22
2022-12-04T20:37:36.385Z,-11129.88
2022-12-04T20:40:42.726Z,-11142.22
2022-12-04T20:43:50.340Z,-11143.06
2022-12-04T20:46:56.415Z,-11141.94
2022-12-04T20:50:02.558Z,-11142.50
2022-12-04T20:53:08.694Z,-11144.19
2022-12-04T20:56:15.573Z,-11132.94
2022-12-04T20:59:25.249Z,-11136.03
2022-12-04T21:02:31.808Z,-11139.28
2022-12-04T21:05:38.226Z,-11144.19
2022-12-04T21:08:57.203Z,-11144.75
2022-12-04T21:12:03.605Z,-11141.66
2022-12-04T21:15:29.324Z,-11145.19
2022-12-04T21:18:37.703Z,-11144.06
2022-12-04T21:21:44.577Z,-11146.44
2022-12-04T21:24:50.653Z,-11149.53
2022-12-04T21:27:56.940Z,-11148.41
2022-12-04T21:31:04.976Z,-11149.53
2022-12-04T21:34:13.262Z,-11146.16
2022-12-04T21:37:19.848Z,-11143.78
2022-12-04T21:40:26.122Z,-11143.62
2022-12-04T21:43:33.414Z,-11147.00
2022-12-04T21:46:41.574Z,-11145.31
2022-12-04T21:49:47.839Z,-11141.38
2022-12-04T21:52:55.830Z,-11146.00
2022-12-04T21:56:01.599Z,-11145.47
2022-12-04T21:59:08.063Z,-11147.97
2022-12-04T22:02:16.890Z,-11148.69
2022-12-04T22:05:22.998Z,-11142.50
2022-12-04T22:08:29.217Z,-11138.16
2022-12-04T22:11:35.621Z,-11142.50
2022-12-04T22:14:41.967Z,-11145.47
2022-12-04T22:17:49.845Z,-11140.81
2022-12-04T22:20:56.042Z,-11138.56
2022-12-04T22:24:03.604Z,-11146.72
2022-12-04T22:27:14.966Z,-11145.88
2022-12-04T22:30:21.300Z,-11148.97
2022-12-04T22:33:29.043Z,-11146.44
2022-12-04T22:36:35.389Z,-11143.34
2022-12-04T22:39:41.585Z,-11146.16
2022-12-04T22:42:47.726Z,-11148.13
2022-12-04T22:45:54.279Z,-11138.16
2022-12-04T22:49:02.720Z,-11140.81
2022-12-04T22:52:09.070Z,-11146.16
2022-12-04T22:55:15.461Z,-11149.53
2022-12-04T22:58:21.640Z,-11150.38
2022-12-04T23:01:30.278Z,-11142.78
2022-12-04T23:04:37.835Z,-11141.09
2022-12-04T23:07:44.139Z,-11147.28
2022-12-04T23:10:50.154Z,-11146.00
2022-12-04T23:13:57.657Z,-11148.41
2022-12-04T23:17:03.942Z,-11146.16
2022-12-04T23:20:12.244Z,-11150.38
2022-12-04T23:23:18.730Z,-11148.25
2022-12-04T23:26:26.420Z,-11146.16
2022-12-04T23:32:58.403Z,-11143.62
2022-12-04T23:36:07.928Z,-11143.62
2022-12-04T23:39:13.900Z,-11134.22
2022-12-04T23:42:19.861Z,-11137.31
2022-12-04T23:45:26.118Z,-11142.09
2022-12-04T23:48:32.484Z,-11144.75
2022-12-04T23:51:40.023Z,-11139.69
2022-12-04T23:54:45.952Z,-11142.66
2022-12-04T23:57:53.056Z,-11143.91
